Time;durP1;ratioP1;P1;durP2;ratioP2;P2;SDS_P1;SDS_P2;PMS_P1;PMS_P2;Temp;Humidity;BMP_temperature;BMP_pressure;BME280_temperature;BME280_humidity;BME280_pressure;Samples;Min_cycle;Max_cycle;Signal;HPM_P1;HPM_P2
2022/06/28 00:01:14;;;;;;;1.92;1.60;;;23.60;99.90;;;;;;4161075;28;20259;-73
2022/06/28 00:03:16;;;;;;;2.47;1.10;;;23.60;99.90;;;;;;4159243;28;20209;-76
2022/06/28 00:05:19;;;;;;;2.90;1.38;;;23.60;99.90;;;;;;4160214;28;20275;-76
2022/06/28 00:07:23;;;;;;;2.25;1.23;;;23.60;99.90;;;;;;4159343;28;20220;-75
2022/06/28 00:09:26;;;;;;;2.25;1.58;;;23.60;99.90;;;;;;4156300;28;20279;-76
2022/06/28 00:11:28;;;;;;;3.92;1.33;;;23.60;99.90;;;;;;4158309;28;20221;-76
2022/06/28 00:13:31;;;;;;;2.53;1.60;;;23.50;99.90;;;;;;4161376;28;20290;-76
2022/06/28 00:17:53;;;;;;;3.13;1.30;;;23.50;99.90;;;;;;4160860;28;20200;-75
2022/06/28 00:19:55;;;;;;;2.67;1.33;;;23.50;99.90;;;;;;4159575;28;20220;-75
2022/06/28 00:21:57;;;;;;;2.35;1.30;;;23.50;99.90;;;;;;4159474;28;20270;-74
2022/06/28 00:24:01;;;;;;;2.97;1.30;;;23.60;99.90;;;;;;4160109;28;20224;-75
2022/06/28 00:26:04;;;;;;;2.05;1.15;;;23.50;99.90;;;;;;4158715;28;20225;-74
2022/06/28 00:28:06;;;;;;;3.13;1.42;;;23.50;99.90;;;;;;4156115;28;20687;-75
2022/06/28 00:30:10;;;;;;;1.98;1.23;;;23.60;99.90;;;;;;4159864;28;20279;-74
2022/06/28 00:32:13;;;;;;;2.13;1.40;;;23.60;99.90;;;;;;4156754;28;20296;-75
2022/06/28 00:34:15;;;;;;;1.83;1.40;;;23.50;99.90;;;;;;4162265;28;20237;-74
2022/06/28 00:36:18;;;;;;;2.08;1.40;;;23.50;99.90;;;;;;4156618;28;20264;-74
2022/06/28 00:38:20;;;;;;;1.90;1.23;;;23.50;99.90;;;;;;4158171;28;20685;-74
2022/06/28 00:40:25;;;;;;;2.97;1.45;;;23.60;99.90;;;;;;4156069;28;20220;-74
2022/06/28 00:42:27;;;;;;;2.05;1.20;;;23.50;99.90;;;;;;4159991;28;21025;-74
2022/06/28 00:44:31;;;;;;;1.45;1.15;;;23.50;99.90;;;;;;4156772;28;20275;-74
2022/06/28 00:46:34;;;;;;;2.75;1.20;;;23.50;99.90;;;;;;4160850;28;20262;-74
2022/06/28 00:48:37;;;;;;;2.35;1.52;;;23.40;99.90;;;;;;4156988;28;20266;-74
2022/06/28 00:50:39;;;;;;;3.72;1.70;;;23.50;99.90;;;;;;4160846;28;20254;-74
2022/06/28 00:53:02;;;;;;;1.92;1.42;;;23.50;99.90;;;;;;4159160;28;20212;-74
2022/06/28 00:55:04;;;;;;;1.95;1.50;;;23.50;99.90;;;;;;4159571;28;20258;-74
2022/06/28 00:57:08;;;;;;;3.15;1.58;;;23.50;99.90;;;;;;4160067;28;20583;-74
2022/06/28 00:59:11;;;;;;;2.67;1.45;;;23.50;99.90;;;;;;4160091;28;20220;-74
2022/06/28 01:01:13;;;;;;;3.13;1.60;;;23.50;99.90;;;;;;4158078;28;20566;-74
2022/06/28 01:03:17;;;;;;;2.67;1.60;;;23.40;99.90;;;;;;4160962;28;20680;-74
2022/06/28 01:05:21;;;;;;;1.95;1.10;;;23.40;99.90;;;;;;4160327;28;20274;-75
2022/06/28 01:07:24;;;;;;;2.50;1.35;;;23.40;99.90;;;;;;4159545;28;20274;-74
2022/06/28 01:09:26;;;;;;;2.70;1.55;;;23.50;99.90;;;;;;4137782;28;20221;-74
2022/06/28 01:11:28;;;;;;;2.25;1.33;;;23.40;99.90;;;;;;4143536;28;20938;-74
2022/06/28 01:13:35;;;;;;;2.70;1.38;;;23.40;99.90;;;;;;4142365;28;20631;-74
2022/06/28 01:15:39;;;;;;;2.90;1.73;;;23.40;99.90;;;;;;4144336;28;20626;-74
2022/06/28 01:17:42;;;;;;;3.25;1.30;;;23.40;99.90;;;;;;4141885;28;20221;-75
2022/06/28 01:19:44;;;;;;;3.03;1.25;;;23.40;99.90;;;;;;4144413;28;20260;-74
2022/06/28 01:21:49;;;;;;;2.22;1.38;;;23.40;99.90;;;;;;4142918;28;20221;-74
2022/06/28 01:23:52;;;;;;;2.97;1.60;;;23.40;99.90;;;;;;4143242;28;20256;-74
2022/06/28 01:25:55;;;;;;;2.10;1.33;;;23.40;99.90;;;;;;4141196;28;20301;-74
2022/06/28 01:27:58;;;;;;;3.30;1.30;;;23.40;99.90;;;;;;4142478;28;20541;-74
2022/06/28 01:30:00;;;;;;;2.13;1.40;;;23.40;99.90;;;;;;4144016;28;20221;-74
2022/06/28 01:32:03;;;;;;;2.42;1.52;;;23.40;99.90;;;;;;4141356;28;20279;-74
2022/06/28 01:34:05;;;;;;;2.10;1.40;;;23.40;99.90;;;;;;4143589;28;20241;-74
2022/06/28 01:36:09;;;;;;;1.45;1.20;;;23.40;99.90;;;;;;4144934;28;20668;-74
2022/06/28 01:38:11;;;;;;;2.25;1.30;;;23.40;99.90;;;;;;4144158;28;20259;-74
2022/06/28 01:40:15;;;;;;;2.22;1.33;;;23.40;99.90;;;;;;4143500;28;20307;-74
2022/06/28 01:42:17;;;;;;;3.22;1.58;;;23.40;99.90;;;;;;4143443;28;20279;-74
2022/06/28 01:44:20;;;;;;;2.17;1.45;;;23.40;99.90;;;;;;4143349;28;20225;-73
2022/06/28 01:46:23;;;;;;;3.15;1.55;;;23.40;99.90;;;;;;4143100;28;20272;-73
2022/06/28 01:48:26;;;;;;;2.03;1.40;;;23.40;99.90;;;;;;4143006;28;20287;-74
2022/06/28 01:50:28;;;;;;;2.85;1.40;;;23.30;99.90;;;;;;4141532;28;20217;-74
2022/06/28 01:52:31;;;;;;;2.05;1.30;;;23.30;99.90;;;;;;4143863;28;20653;-74
2022/06/28 01:54:33;;;;;;;2.63;1.38;;;23.30;99.90;;;;;;4143459;28;20303;-74
2022/06/28 01:56:37;;;;;;;4.90;1.20;;;23.30;99.90;;;;;;4142699;28;20221;-74
2022/06/28 01:58:39;;;;;;;2.92;1.38;;;23.30;99.90;;;;;;4143281;28;20251;-74
2022/06/28 02:00:42;;;;;;;2.15;1.45;;;23.30;99.90;;;;;;4143069;28;20247;-74
2022/06/28 02:02:44;;;;;;;3.47;1.27;;;23.30;99.90;;;;;;4142796;28;20213;-74
2022/06/28 02:04:46;;;;;;;3.60;1.60;;;23.30;99.90;;;;;;4141895;28;20260;-74
2022/06/28 02:06:49;;;;;;;1.83;1.42;;;23.30;99.90;;;;;;4141598;28;20220;-74
2022/06/28 02:08:51;;;;;;;2.33;1.40;;;23.30;99.90;;;;;;4155591;28;20957;-73
2022/06/28 02:10:57;;;;;;;1.80;1.30;;;23.30;99.90;;;;;;4159473;28;20265;-74
2022/06/28 02:13:00;;;;;;;1.75;1.40;;;23.30;99.90;;;;;;4155259;28;20220;-74
2022/06/28 02:15:03;;;;;;;1.77;1.17;;;23.30;99.90;;;;;;4158089;28;20601;-74
2022/06/28 02:17:05;;;;;;;2.08;1.45;;;23.30;99.90;;;;;;4159209;28;20254;-74
2022/06/28 02:19:08;;;;;;;2.40;1.30;;;23.30;99.90;;;;;;4157370;28;20377;-74
2022/06/28 02:21:10;;;;;;;2.67;1.20;;;23.30;99.90;;;;;;4159324;28;20208;-74
2022/06/28 02:23:12;;;;;;;2.97;1.45;;;23.30;99.90;;;;;;4159645;28;20266;-74
2022/06/28 02:25:15;;;;;;;2.55;1.42;;;23.30;99.90;;;;;;4159327;28;20212;-74
2022/06/28 02:27:17;;;;;;;3.00;1.73;;;23.30;99.90;;;;;;4157368;28;20259;-74
2022/06/28 02:29:21;;;;;;;2.58;1.40;;;23.30;99.90;;;;;;4159786;28;20212;-74
2022/06/28 02:31:23;;;;;;;2.20;1.15;;;23.30;99.90;;;;;;4156825;28;20266;-73
2022/06/28 02:33:26;;;;;;;2.67;1.50;;;23.30;99.90;;;;;;4158396;28;20255;-74
2022/06/28 02:40:24;;;;;;;5.80;1.42;;;23.30;99.90;;;;;;4159492;28;20552;-74
2022/06/28 02:42:26;;;;;;;3.10;1.63;;;23.30;99.90;;;;;;4160958;28;20637;-74
2022/06/28 02:44:30;;;;;;;2.42;1.50;;;23.30;99.90;;;;;;4164545;28;20221;-74
2022/06/28 02:46:33;;;;;;;1.98;1.40;;;23.30;99.90;;;;;;4164610;28;20212;-74
2022/06/28 02:48:35;;;;;;;2.17;1.45;;;23.20;99.90;;;;;;4164735;28;20211;-74
2022/06/28 02:50:38;;;;;;;3.88;1.45;;;23.20;99.90;;;;;;4163454;28;20281;-73
2022/06/28 02:52:41;;;;;;;3.53;1.40;;;23.20;99.90;;;;;;4161313;28;20263;-74
2022/06/28 02:54:43;;;;;;;1.88;1.30;;;23.20;99.90;;;;;;4163548;28;20270;-74
2022/06/28 02:56:45;;;;;;;2.22;1.25;;;23.30;99.90;;;;;;4160710;28;20220;-74
2022/06/28 02:58:48;;;;;;;2.88;1.30;;;23.30;99.90;;;;;;4160278;28;20220;-74
2022/06/28 03:00:51;;;;;;;1.85;1.02;;;23.20;99.90;;;;;;4163097;28;20224;-73
2022/06/28 03:02:54;;;;;;;1.77;1.17;;;23.20;99.90;;;;;;4162222;28;20274;-74
2022/06/28 03:04:56;;;;;;;1.65;1.35;;;23.20;99.90;;;;;;4163591;28;20266;-74
2022/06/28 03:06:58;;;;;;;2.28;1.20;;;23.20;99.90;;;;;;4163941;28;20568;-74
2022/06/28 03:09:01;;;;;;;2.85;1.30;;;23.20;99.90;;;;;;4161426;28;20236;-74
2022/06/28 03:11:03;;;;;;;2.53;1.38;;;23.20;99.90;;;;;;4161232;28;20217;-74
2022/06/28 03:13:06;;;;;;;2.55;1.48;;;23.20;99.90;;;;;;4164559;28;20216;-74
2022/06/28 03:15:09;;;;;;;2.75;1.30;;;23.20;99.90;;;;;;4163037;28;20233;-74
2022/06/28 03:17:13;;;;;;;2.42;1.40;;;23.20;99.90;;;;;;4163718;28;21039;-74
2022/06/28 03:19:15;;;;;;;1.70;1.25;;;23.20;99.90;;;;;;4156380;28;20216;-75
2022/06/28 03:21:17;;;;;;;2.15;1.38;;;23.20;99.90;;;;;;4162360;28;20266;-74
2022/06/28 03:23:20;;;;;;;4.38;1.50;;;23.20;99.90;;;;;;4163839;28;20365;-74
2022/06/28 03:25:22;;;;;;;2.35;1.30;;;23.20;99.90;;;;;;4162959;28;20239;-74
2022/06/28 03:27:24;;;;;;;1.88;1.25;;;23.20;99.90;;;;;;4162699;28;20671;-74
2022/06/28 03:29:27;;;;;;;2.10;1.60;;;23.20;99.90;;;;;;4162862;28;20212;-74
2022/06/28 03:31:29;;;;;;;3.05;1.50;;;23.20;99.90;;;;;;4163722;28;20270;-73
2022/06/28 03:33:33;;;;;;;2.55;1.30;;;23.20;99.90;;;;;;4164463;28;20641;-74
2022/06/28 03:35:35;;;;;;;2.13;1.23;;;23.20;99.90;;;;;;4163958;28;20232;-73
2022/06/28 03:37:38;;;;;;;3.00;1.40;;;23.20;99.90;;;;;;4164266;28;20546;-74
2022/06/28 03:39:40;;;;;;;3.92;1.60;;;23.10;99.90;;;;;;4160866;28;20216;-73
2022/06/28 03:41:43;;;;;;;2.58;1.52;;;23.10;99.90;;;;;;4162199;28;20217;-74
2022/06/28 03:43:45;;;;;;;2.05;1.30;;;23.20;99.90;;;;;;4160612;28;20581;-73
2022/06/28 03:45:48;;;;;;;2.40;1.30;;;23.20;99.90;;;;;;4164797;28;20212;-74
2022/06/28 03:47:50;;;;;;;2.00;1.20;;;23.10;99.90;;;;;;4164226;28;20283;-74
2022/06/28 03:49:53;;;;;;;3.65;1.50;;;23.20;99.90;;;;;;4164009;28;20226;-74
2022/06/28 03:51:56;;;;;;;2.83;1.48;;;23.10;99.90;;;;;;4164179;28;20228;-74
2022/06/28 03:53:58;;;;;;;2.45;1.45;;;23.10;99.90;;;;;;4162496;28;20858;-74
2022/06/28 03:56:01;;;;;;;3.03;1.38;;;23.10;99.90;;;;;;4159085;28;20240;-73
2022/06/28 03:58:03;;;;;;;2.63;1.40;;;23.10;99.90;;;;;;4160683;28;20217;-73
2022/06/28 04:00:07;;;;;;;1.27;1.10;;;23.10;99.90;;;;;;4161336;28;20224;-74
2022/06/28 04:02:09;;;;;;;2.90;1.40;;;23.10;99.90;;;;;;4159585;28;20213;-74
2022/06/28 04:04:11;;;;;;;2.65;1.35;;;23.10;99.90;;;;;;4160504;28;20208;-73
2022/06/28 04:06:15;;;;;;;3.28;1.20;;;23.10;99.90;;;;;;4159709;28;20255;-73
2022/06/28 04:08:17;;;;;;;1.92;1.27;;;23.10;99.90;;;;;;4159313;28;20258;-73
2022/06/28 04:10:20;;;;;;;2.40;1.38;;;23.10;99.90;;;;;;4161955;28;20220;-74
2022/06/28 04:12:22;;;;;;;2.00;1.10;;;23.10;99.90;;;;;;4161820;28;20234;-73
2022/06/28 04:14:25;;;;;;;1.80;1.20;;;23.10;99.90;;;;;;4158754;28;20305;-74
2022/06/28 04:16:27;;;;;;;2.08;1.30;;;23.10;99.90;;;;;;4160448;28;20298;-73
2022/06/28 04:18:29;;;;;;;3.00;1.23;;;23.10;99.90;;;;;;4159028;28;20216;-73
2022/06/28 04:20:32;;;;;;;2.17;1.40;;;23.10;99.90;;;;;;4156994;28;20615;-73
2022/06/28 04:22:35;;;;;;;2.75;1.30;;;23.10;99.90;;;;;;4161100;28;20216;-73
2022/06/28 04:24:38;;;;;;;2.70;1.30;;;23.10;99.90;;;;;;4160510;28;20578;-73
2022/06/28 04:26:40;;;;;;;1.55;1.05;;;23.10;99.90;;;;;;4159831;28;20707;-74
2022/06/28 04:28:42;;;;;;;3.50;1.58;;;23.10;99.90;;;;;;4160851;28;20220;-74
2022/06/28 04:30:45;;;;;;;2.33;1.33;;;23.10;99.90;;;;;;4159354;28;20613;-74
2022/06/28 04:32:47;;;;;;;1.75;1.20;;;23.10;99.90;;;;;;4159666;28;20220;-73
2022/06/28 04:34:49;;;;;;;2.03;1.30;;;23.10;99.90;;;;;;4158193;28;20283;-74
2022/06/28 04:36:51;;;;;;;2.58;1.15;;;23.10;99.90;;;;;;4160765;28;20236;-73
2022/06/28 04:38:56;;;;;;;2.92;1.55;;;23.10;99.90;;;;;;4161011;28;20279;-73
2022/06/28 04:40:58;;;;;;;1.95;1.33;;;23.10;99.90;;;;;;4161332;28;20258;-74
2022/06/28 04:43:02;;;;;;;3.38;1.33;;;23.00;99.90;;;;;;4159364;28;20256;-74
2022/06/28 04:45:05;;;;;;;2.80;1.23;;;23.10;99.90;;;;;;4156336;28;20205;-74
2022/06/28 04:47:08;;;;;;;2.15;1.10;;;23.10;99.90;;;;;;4158743;28;20221;-74
2022/06/28 04:49:10;;;;;;;2.13;1.42;;;23.10;99.90;;;;;;4161151;28;20258;-74
2022/06/28 04:51:13;;;;;;;2.28;1.35;;;23.10;99.90;;;;;;4159475;28;20545;-74
2022/06/28 04:53:15;;;;;;;2.17;1.30;;;23.10;99.90;;;;;;4160339;28;20220;-74
2022/06/28 04:55:19;;;;;;;2.33;1.45;;;23.00;99.90;;;;;;4158984;28;20310;-74
2022/06/28 04:57:21;;;;;;;2.35;1.40;;;23.10;99.90;;;;;;4160244;28;20270;-74
2022/06/28 04:59:23;;;;;;;2.08;1.50;;;23.10;99.90;;;;;;4160790;28;20217;-74
2022/06/28 05:01:26;;;;;;;1.67;1.13;;;23.10;99.90;;;;;;4160185;28;20267;-74
2022/06/28 05:03:28;;;;;;;2.70;1.50;;;23.00;99.90;;;;;;4160999;28;20247;-74
2022/06/28 05:05:31;;;;;;;2.22;1.30;;;23.10;99.90;;;;;;4157569;28;20204;-74
2022/06/28 05:07:33;;;;;;;2.38;1.25;;;23.10;99.90;;;;;;4158603;28;20557;-74
2022/06/28 05:09:35;;;;;;;2.90;1.40;;;23.10;99.90;;;;;;4159205;28;20208;-74
2022/06/28 05:11:39;;;;;;;2.15;1.25;;;23.10;99.90;;;;;;4160805;28;20656;-74
2022/06/28 05:13:42;;;;;;;3.17;1.30;;;23.10;99.90;;;;;;4158303;28;20221;-74
2022/06/28 05:15:44;;;;;;;3.17;1.40;;;23.10;99.90;;;;;;4160345;28;20232;-74
2022/06/28 05:17:46;;;;;;;3.80;1.50;;;23.10;99.90;;;;;;4159998;28;20220;-74
2022/06/28 05:19:50;;;;;;;3.08;1.20;;;23.10;99.90;;;;;;4159474;28;20217;-74
2022/06/28 05:21:52;;;;;;;2.15;1.23;;;23.10;99.90;;;;;;4160312;28;20217;-74
2022/06/28 05:23:55;;;;;;;2.60;1.40;;;23.10;99.90;;;;;;4159659;28;20217;-74
2022/06/28 05:25:57;;;;;;;1.73;1.40;;;23.10;99.90;;;;;;4159398;28;20257;-74
2022/06/28 05:28:00;;;;;;;2.63;1.35;;;23.10;99.90;;;;;;4159341;28;20224;-75
2022/06/28 05:30:03;;;;;;;2.67;1.23;;;23.10;99.90;;;;;;4160639;28;20224;-74
2022/06/28 05:32:06;;;;;;;3.25;1.25;;;23.10;99.90;;;;;;4160190;28;20225;-74
2022/06/28 05:34:08;;;;;;;3.47;1.33;;;23.10;99.90;;;;;;4158973;28;20213;-74
2022/06/28 05:36:11;;;;;;;2.20;1.30;;;23.10;99.90;;;;;;4157570;28;20236;-74
2022/06/28 05:38:13;;;;;;;1.70;1.00;;;23.10;99.90;;;;;;4159999;28;20255;-74
2022/06/28 05:40:15;;;;;;;2.53;1.35;;;23.10;99.90;;;;;;4158619;28;20220;-74
2022/06/28 05:42:18;;;;;;;2.92;1.10;;;23.10;99.90;;;;;;4157371;28;20270;-74
2022/06/28 05:44:21;;;;;;;2.58;1.15;;;23.10;99.90;;;;;;4154525;28;20296;-74
2022/06/28 05:46:24;;;;;;;3.38;1.40;;;23.10;99.90;;;;;;4159280;28;20217;-74
2022/06/28 05:48:27;;;;;;;2.78;1.13;;;23.10;99.90;;;;;;4158947;28;20217;-74
2022/06/28 05:50:29;;;;;;;3.35;1.13;;;23.10;99.90;;;;;;4160527;28;20306;-74
2022/06/28 05:52:32;;;;;;;2.67;1.20;;;23.10;99.90;;;;;;4160315;28;20224;-74
2022/06/28 05:54:34;;;;;;;2.90;1.30;;;23.10;99.90;;;;;;4159666;28;20294;-74
2022/06/28 05:56:37;;;;;;;2.40;1.40;;;23.10;99.90;;;;;;4156839;28;20644;-74
2022/06/28 05:58:39;;;;;;;2.75;1.58;;;23.10;99.90;;;;;;4159304;28;20920;-74
2022/06/28 06:00:43;;;;;;;1.48;1.10;;;23.10;99.90;;;;;;4156314;28;20301;-74
2022/06/28 06:02:45;;;;;;;1.73;1.20;;;23.10;99.90;;;;;;4159865;28;20922;-75
2022/06/28 06:04:48;;;;;;;2.03;1.02;;;23.10;99.90;;;;;;4159731;28;20288;-74
2022/06/28 06:06:50;;;;;;;2.35;1.30;;;23.10;99.90;;;;;;4159399;28;20307;-74
2022/06/28 06:08:53;;;;;;;1.85;1.17;;;23.10;99.90;;;;;;4154920;28;20232;-74
2022/06/28 06:10:55;;;;;;;2.25;1.40;;;23.10;99.90;;;;;;4157469;28;20692;-74
2022/06/28 06:12:57;;;;;;;2.30;1.35;;;23.10;99.90;;;;;;4159345;28;20228;-74
2022/06/28 06:15:00;;;;;;;2.70;1.17;;;23.10;99.90;;;;;;4155948;28;20661;-74
2022/06/28 06:17:04;;;;;;;3.08;1.20;;;23.10;99.90;;;;;;4155095;28;20302;-74
2022/06/28 06:19:06;;;;;;;3.35;1.27;;;23.10;99.90;;;;;;4158418;28;20278;-74
2022/06/28 06:21:08;;;;;;;3.75;1.52;;;23.10;99.90;;;;;;4156498;28;20248;-74
2022/06/28 06:23:11;;;;;;;2.30;1.23;;;23.10;99.90;;;;;;4159800;28;20270;-74
2022/06/28 06:25:13;;;;;;;3.58;1.50;;;23.10;99.90;;;;;;4158267;28;20347;-76
2022/06/28 06:27:15;;;;;;;2.88;1.23;;;23.10;99.90;;;;;;4158731;28;20262;-73
2022/06/28 06:29:18;;;;;;;3.47;1.40;;;23.10;99.90;;;;;;4159694;28;20287;-73
2022/06/28 06:31:20;;;;;;;2.50;1.13;;;23.10;99.90;;;;;;4157948;28;20614;-73
2022/06/28 06:33:24;;;;;;;2.63;1.38;;;23.10;99.90;;;;;;4154891;28;20700;-74
2022/06/28 06:35:26;;;;;;;2.75;1.15;;;23.10;99.90;;;;;;4157214;28;20721;-74
2022/06/28 06:37:28;;;;;;;2.83;1.60;;;23.10;99.90;;;;;;4158192;28;21801;-74
2022/06/28 06:39:31;;;;;;;2.25;1.13;;;23.10;99.90;;;;;;4158946;28;20212;-74
2022/06/28 06:41:33;;;;;;;3.28;1.20;;;23.10;99.90;;;;;;4157574;28;20290;-73
2022/06/28 06:43:36;;;;;;;2.53;1.30;;;23.10;99.90;;;;;;4158454;28;20236;-73
2022/06/28 06:45:38;;;;;;;2.40;1.27;;;23.10;99.90;;;;;;4159385;28;20279;-74
2022/06/28 06:47:40;;;;;;;1.67;1.13;;;23.10;99.90;;;;;;4157029;28;20208;-73
2022/06/28 06:49:44;;;;;;;1.73;1.17;;;23.10;99.90;;;;;;4156542;28;20219;-76
2022/06/28 06:51:48;;;;;;;2.75;1.50;;;23.10;99.90;;;;;;4154117;28;20207;-75
2022/06/28 06:53:50;;;;;;;3.38;1.30;;;23.10;99.90;;;;;;4156214;28;20217;-74
2022/06/28 06:55:52;;;;;;;4.22;1.40;;;23.10;99.90;;;;;;4154899;28;20225;-74
2022/06/28 06:57:55;;;;;;;4.82;1.40;;;23.20;99.90;;;;;;4150438;28;20708;-74
2022/06/28 06:59:57;;;;;;;2.40;1.20;;;23.00;99.90;;;;;;4152414;28;20284;-78
2022/06/28 07:01:59;;;;;;;4.85;1.50;;;22.90;99.90;;;;;;4155289;28;20251;-73
2022/06/28 07:04:02;;;;;;;3.97;1.63;;;22.90;99.90;;;;;;4150437;28;20283;-76
2022/06/28 07:06:06;;;;;;;8.52;1.90;;;22.90;99.90;;;;;;4155671;28;20221;-74
2022/06/28 07:08:08;;;;;;;3.67;1.30;;;22.90;99.90;;;;;;4155872;28;20241;-74
2022/06/28 07:10:11;;;;;;;5.10;1.60;;;22.90;99.90;;;;;;4153250;28;20622;-73
2022/06/28 07:12:13;;;;;;;3.65;1.60;;;22.90;99.70;;;;;;4155241;28;20216;-73
2022/06/28 07:14:15;;;;;;;5.43;1.50;;;22.90;99.40;;;;;;4155432;28;20618;-73
2022/06/28 07:16:18;;;;;;;3.95;1.55;;;22.90;99.20;;;;;;4156513;28;20213;-73
2022/06/28 07:18:20;;;;;;;6.20;1.85;;;22.90;99.00;;;;;;4158254;28;20209;-73
2022/06/28 07:20:23;;;;;;;9.65;1.98;;;22.90;98.60;;;;;;4153283;28;20263;-73
2022/06/28 07:22:26;;;;;;;6.28;1.70;;;22.80;98.30;;;;;;4155259;28;20282;-74
2022/06/28 07:24:30;;;;;;;5.15;1.80;;;22.80;98.00;;;;;;4154335;28;20212;-73
2022/06/28 07:26:35;;;;;;;4.13;1.70;;;22.80;97.90;;;;;;4152600;28;20221;-74
2022/06/28 07:28:38;;;;;;;7.55;1.90;;;22.90;97.90;;;;;;4158108;28;20695;-73
2022/06/28 07:30:40;;;;;;;6.50;1.60;;;22.90;97.70;;;;;;4155851;28;20303;-73
2022/06/28 07:32:42;;;;;;;7.38;2.35;;;22.80;97.40;;;;;;4156557;28;20217;-73
2022/06/28 07:34:45;;;;;;;6.90;2.22;;;22.80;97.10;;;;;;4155352;28;20952;-77
2022/06/28 07:36:47;;;;;;;7.15;2.30;;;22.90;97.10;;;;;;4155254;28;20723;-78
2022/06/28 07:38:51;;;;;;;4.70;1.60;;;22.80;98.10;;;;;;4152261;28;20221;-78
2022/06/28 07:40:53;;;;;;;7.50;2.17;;;22.90;97.90;;;;;;4152108;28;20208;-77
2022/06/28 07:42:55;;;;;;;7.35;2.15;;;22.90;97.40;;;;;;4149087;28;20653;-75
2022/06/28 07:44:58;;;;;;;5.07;1.67;;;23.00;97.10;;;;;;4154344;28;20221;-77
2022/06/28 07:47:01;;;;;;;3.80;1.63;;;22.90;97.50;;;;;;4148203;28;20727;-76
2022/06/28 07:49:04;;;;;;;10.55;1.80;;;23.00;97.60;;;;;;4151714;28;20220;-76
2022/06/28 07:53:26;;;;;;;8.32;1.77;;;22.90;97.10;;;;;;4156411;28;20193;-76
2022/06/28 07:55:30;;;;;;;5.47;1.65;;;23.00;98.10;;;;;;4150282;28;20221;-76
2022/06/28 07:57:32;;;;;;;6.05;1.77;;;23.10;96.90;;;;;;4156951;28;20232;-74
2022/06/28 07:59:34;;;;;;;5.72;1.40;;;23.10;96.80;;;;;;4159692;28;20307;-76
2022/06/28 08:01:37;;;;;;;7.60;1.35;;;23.10;96.80;;;;;;4154919;28;20274;-73
2022/06/28 08:03:39;;;;;;;5.22;1.45;;;23.10;96.60;;;;;;4156720;28;20270;-76
2022/06/28 08:05:41;;;;;;;3.08;1.10;;;23.10;96.90;;;;;;4160655;28;20228;-76
2022/06/28 08:10:08;;;;;;;5.45;1.67;;;23.10;96.40;;;;;;4150496;28;20216;-75
2022/06/28 08:12:11;;;;;;;4.40;1.60;;;23.20;96.40;;;;;;4151165;28;20225;-74
2022/06/28 08:14:14;;;;;;;5.65;1.60;;;23.20;96.30;;;;;;4154617;28;20698;-74
2022/06/28 08:16:16;;;;;;;7.90;2.03;;;23.10;96.30;;;;;;4151962;28;20212;-77
2022/06/28 08:18:19;;;;;;;6.75;1.58;;;23.20;96.50;;;;;;4155676;28;20685;-78
2022/06/28 08:20:21;;;;;;;8.05;2.00;;;23.30;96.70;;;;;;4157145;28;20225;-76
2022/06/28 08:22:24;;;;;;;10.82;2.20;;;23.30;97.00;;;;;;4155920;28;20261;-79
2022/06/28 08:24:42;;;;;;;8.63;1.90;;;23.30;96.60;;;;;;4157441;28;20279;-79
2022/06/28 08:26:45;;;;;;;5.07;2.15;;;23.20;96.60;;;;;;4153891;28;20213;-77
2022/06/28 08:28:49;;;;;;;9.30;2.42;;;23.20;96.80;;;;;;4158650;28;20242;-77
2022/06/28 08:30:51;;;;;;;5.85;2.00;;;23.20;96.80;;;;;;4153295;28;20209;-77
2022/06/28 08:32:53;;;;;;;4.72;2.10;;;23.10;97.20;;;;;;4151542;28;20209;-77
2022/06/28 08:34:56;;;;;;;7.68;2.33;;;23.20;97.60;;;;;;4155255;28;20270;-80
2022/06/28 08:36:58;;;;;;;4.38;2.28;;;23.20;97.10;;;;;;4160589;28;20295;-83
2022/06/28 08:39:01;;;;;;;7.72;2.28;;;23.20;96.90;;;;;;4156224;28;20685;-77
2022/06/28 08:41:04;;;;;;;6.68;2.10;;;23.20;96.80;;;;;;4150587;28;20225;-76
2022/06/28 08:43:07;;;;;;;7.63;2.38;;;23.20;96.90;;;;;;4153749;28;20213;-76
2022/06/28 08:45:13;;;;;;;7.75;2.45;;;23.20;96.90;;;;;;4148172;28;20319;-77
2022/06/28 08:47:15;;;;;;;5.93;2.67;;;23.20;97.00;;;;;;4156041;28;20296;-76
2022/06/28 08:49:23;;;;;;;8.35;2.25;;;23.30;97.20;;;;;;4156455;28;20783;-77
2022/06/28 08:51:30;;;;;;;7.22;2.60;;;23.40;97.30;;;;;;4158132;28;20270;-77
2022/06/28 08:53:35;;;;;;;5.22;2.03;;;23.30;97.40;;;;;;4156456;28;20262;-78
2022/06/28 08:55:38;;;;;;;7.90;2.25;;;23.30;97.00;;;;;;4149568;28;20228;-76
2022/06/28 08:57:41;;;;;;;5.57;2.17;;;23.30;97.50;;;;;;4158333;28;20248;-79
2022/06/28 08:59:44;;;;;;;4.05;1.83;;;23.40;98.10;;;;;;4158081;28;20212;-79
2022/06/28 09:01:49;;;;;;;5.90;1.88;;;23.40;97.60;;;;;;4160383;28;20220;-78
2022/06/28 09:03:53;;;;;;;5.07;1.70;;;23.40;97.40;;;;;;4156445;28;20312;-78
2022/06/28 09:05:55;;;;;;;4.35;1.90;;;23.40;97.40;;;;;;4149852;28;20216;-77
2022/06/28 09:07:59;;;;;;;3.03;1.33;;;23.40;97.40;;;;;;4154316;28;20767;-77
2022/06/28 09:10:02;;;;;;;6.82;1.48;;;23.40;97.50;;;;;;4155720;28;20259;-79
2022/06/28 09:12:05;;;;;;;6.65;1.70;;;23.50;97.60;;;;;;4156153;28;20262;-75
2022/06/28 09:14:22;;;;;;;6.18;1.63;;;23.50;97.90;;;;;;4157421;28;20232;-79
2022/06/28 09:16:25;;;;;;;11.77;2.05;;;23.60;98.20;;;;;;4155376;28;20271;-78
2022/06/28 09:18:44;;;;;;;5.85;1.95;;;23.50;98.40;;;;;;4156928;28;20237;-79
2022/06/28 09:20:50;;;;;;;5.22;1.45;;;23.60;98.70;;;;;;4157712;28;20204;-77
2022/06/28 09:22:53;;;;;;;5.72;1.48;;;23.60;98.10;;;;;;4150444;28;20221;-78
2022/06/28 09:24:55;;;;;;;6.20;1.58;;;23.60;97.50;;;;;;4152219;28;20642;-78
2022/06/28 09:27:16;;;;;;;5.05;1.42;;;23.60;97.30;;;;;;4152824;28;20216;-78
2022/06/28 09:29:18;;;;;;;6.45;1.80;;;23.70;97.50;;;;;;4156977;28;20274;-81
2022/06/28 09:31:23;;;;;;;6.47;1.85;;;23.70;98.40;;;;;;4158437;28;20270;-76
2022/06/28 09:33:26;;;;;;;6.45;1.80;;;23.80;98.50;;;;;;4160630;28;20208;-77
2022/06/28 09:35:30;;;;;;;6.63;1.40;;;23.80;98.70;;;;;;4160995;28;20220;-75
2022/06/28 09:37:34;;;;;;;6.28;1.38;;;23.80;98.10;;;;;;4152885;28;20247;-77
2022/06/28 09:39:37;;;;;;;3.95;1.02;;;23.70;98.00;;;;;;4150766;28;21922;-76
2022/06/28 09:41:43;;;;;;;3.78;1.33;;;23.70;97.90;;;;;;4149741;28;20293;-76
2022/06/28 09:43:54;;;;;;;4.28;1.60;;;23.60;97.80;;;;;;4156745;28;20311;-75
2022/06/28 09:45:58;;;;;;;6.07;1.40;;;23.70;98.90;;;;;;4150670;28;20216;-80
2022/06/28 09:48:01;;;;;;;7.15;1.35;;;23.70;98.60;;;;;;4153240;28;20270;-79
2022/06/28 09:50:07;;;;;;;5.07;1.67;;;23.80;98.30;;;;;;4154811;28;20212;-81
2022/06/28 09:52:11;;;;;;;5.40;1.70;;;23.80;98.40;;;;;;4157097;28;20213;-78
2022/06/28 09:54:14;;;;;;;3.55;1.77;;;23.90;98.90;;;;;;4156722;28;20204;-77
2022/06/28 09:56:16;;;;;;;4.82;1.27;;;23.90;99.50;;;;;;4148875;28;20652;-74
2022/06/28 09:58:20;;;;;;;3.95;1.60;;;23.90;99.30;;;;;;4152794;28;20228;-75
2022/06/28 10:00:24;;;;;;;5.22;1.70;;;23.90;99.20;;;;;;4157362;28;20646;-75
2022/06/28 10:02:28;;;;;;;10.50;1.73;;;24.00;99.80;;;;;;4154792;28;20221;-74
2022/06/28 10:04:31;;;;;;;3.08;1.38;;;24.00;99.90;;;;;;4155200;28;20362;-76
2022/06/28 10:06:37;;;;;;;7.07;1.48;;;23.90;99.40;;;;;;4155739;28;20216;-76
2022/06/28 10:08:42;;;;;;;5.57;1.50;;;23.90;99.60;;;;;;4153168;28;20278;-76
2022/06/28 10:10:46;;;;;;;7.10;1.50;;;23.90;99.60;;;;;;4152915;28;20217;-76
2022/06/28 10:15:09;;;;;;;4.25;1.45;;;23.90;99.50;;;;;;4155218;28;20216;-76
2022/06/28 10:17:23;;;;;;;6.20;1.75;;;23.90;99.40;;;;;;4157545;28;20262;-75
2022/06/28 10:19:27;;;;;;;7.05;1.70;;;23.80;99.20;;;;;;4151996;28;20244;-75
2022/06/28 10:21:46;;;;;;;4.70;1.67;;;23.70;99.30;;;;;;4151278;28;20225;-74
2022/06/28 10:23:50;;;;;;;5.40;1.83;;;23.60;99.60;;;;;;4152904;28;20216;-77
2022/06/28 10:26:03;;;;;;;6.25;2.00;;;23.60;99.40;;;;;;4151336;28;20335;-77
2022/06/28 10:28:26;;;;;;;10.63;2.25;;;23.70;99.50;;;;;;4153123;28;20208;-76
2022/06/28 10:30:31;;;;;;;4.35;1.50;;;23.80;99.50;;;;;;4148398;28;20916;-76
2022/06/28 10:32:46;;;;;;;5.88;1.48;;;23.90;99.30;;;;;;4145099;28;20727;-75
2022/06/28 10:34:52;;;;;;;3.97;1.67;;;23.90;99.30;;;;;;4149191;28;20216;-78
2022/06/28 10:36:56;;;;;;;4.63;1.50;;;23.90;99.40;;;;;;4150914;28;20220;-77
2022/06/28 10:39:15;;;;;;;5.50;1.70;;;23.90;99.30;;;;;;4152453;28;20616;-75
2022/06/28 10:41:17;;;;;;;9.75;1.48;;;23.80;99.10;;;;;;4153396;28;20267;-74
2022/06/28 10:43:45;;;;;;;6.93;1.98;;;23.80;99.60;;;;;;4152374;28;20221;-75
2022/06/28 10:46:09;;;;;;;6.57;1.17;;;23.90;99.50;;;;;;4147946;28;20217;-74
2022/06/28 10:48:13;;;;;;;6.78;2.08;;;24.10;99.60;;;;;;4155450;28;20263;-84
2022/06/28 10:50:17;;;;;;;8.55;2.40;;;24.10;99.50;;;;;;4155226;28;20982;-76
2022/06/28 10:52:20;;;;;;;14.15;2.40;;;24.10;99.30;;;;;;4154643;28;20220;-74
2022/06/28 10:54:24;;;;;;;4.88;1.58;;;24.20;99.30;;;;;;4150728;28;20264;-73
2022/06/28 10:56:29;;;;;;;4.90;1.63;;;24.20;99.50;;;;;;4152076;28;20286;-74